Time;durP1;ratioP1;P1;durP2;ratioP2;P2;SDS_P1;SDS_P2;PMS_P1;PMS_P2;Temp;Humidity;BMP_temperature;BMP_pressure;BME280_temperature;BME280_humidity;BME280_pressure;Samples;Min_cycle;Max_cycle;Signal;HPM_P1;HPM_P2
2022/11/10 00:00:35;;;;;;;222.05;98.55;;;;;;;0.58;81.98;102049.19;1746023;81;21165;-87
2022/11/10 00:03:21;;;;;;;247.85;96.97;;;;;;;0.56;82.04;102052.19;1745932;81;21374;-88
2022/11/10 00:06:08;;;;;;;252.28;94.45;;;;;;;0.56;82.22;102052.19;1745380;82;20897;-88
2022/11/10 00:08:53;;;;;;;233.85;84.87;;;;;;;0.56;82.41;102038.84;1745458;82;20893;-87
2022/11/10 00:11:38;;;;;;;209.70;85.80;;;;;;;0.57;82.54;102048.30;1745804;81;20960;-86
2022/11/10 00:17:26;;;;;;;199.93;84.30;;;;;;;0.59;82.98;102049.17;1745595;81;20077;-87
2022/11/10 00:20:11;;;;;;;198.62;82.12;;;;;;;0.57;83.08;102047.00;1745170;81;20889;-86
2022/11/10 00:22:57;;;;;;;198.28;84.03;;;;;;;0.55;83.27;102045.28;1745391;81;20972;-88
2022/11/10 00:25:42;;;;;;;154.72;82.97;;;;;;;0.56;83.51;102050.89;1745485;81;20858;-88
2022/11/10 00:28:29;;;;;;;;;;;;;;;0.55;83.56;102047.86;1748111;81;21226;-88
2022/11/10 00:31:15;;;;;;;156.85;81.25;;;;;;;0.54;83.57;102049.58;1745314;81;20140;-88
2022/11/10 00:34:00;;;;;;;192.10;90.28;;;;;;;0.55;83.80;102043.98;1745676;81;20925;-87
2022/11/10 00:36:47;;;;;;;183.45;84.75;;;;;;;0.59;84.22;102042.72;1745356;81;21374;-88
2022/11/10 00:39:32;;;;;;;178.15;90.32;;;;;;;0.65;84.33;102041.89;1744908;81;20917;-89
2022/11/10 00:42:16;;;;;;;204.15;89.32;;;;;;;0.70;84.43;102050.51;1745085;81;21260;-88
2022/11/10 00:45:02;;;;;;;;;;;;;;;0.72;84.29;102046.66;1754296;81;20908;-86
2022/11/10 00:47:47;;;;;;;219.57;87.27;;;;;;;0.71;84.14;102046.20;1758385;81;20100;-87
2022/11/10 00:50:32;;;;;;;207.98;90.75;;;;;;;0.69;84.11;102043.63;1758221;80;20861;-88
2022/11/10 00:53:17;;;;;;;206.45;89.70;;;;;;;0.65;84.05;102049.64;1758234;80;20967;-86
2022/11/10 00:56:03;;;;;;;196.87;88.75;;;;;;;0.65;84.05;102048.78;1758051;81;21170;-87
2022/11/10 00:58:48;;;;;;;174.15;82.62;;;;;;;0.65;84.02;102048.78;1758234;81;20912;-86
2022/11/10 01:01:34;;;;;;;165.35;80.55;;;;;;;0.60;83.84;102041.88;1758337;80;20967;-87
2022/11/10 01:04:19;;;;;;;174.68;81.05;;;;;;;0.59;84.08;102044.44;1757963;80;20947;-86
2022/11/10 01:07:06;;;;;;;192.07;83.42;;;;;;;0.57;84.44;102038.41;1758074;81;20912;-88
2022/11/10 01:09:51;;;;;;;171.72;79.82;;;;;;;0.59;84.86;102042.72;1758335;81;21381;-87
2022/11/10 01:12:38;;;;;;;178.93;78.07;;;;;;;0.63;84.93;102053.07;1758086;81;20967;-87
2022/11/10 01:15:23;;;;;;;181.18;81.45;;;;;;;0.64;84.88;102051.77;1758441;81;20853;-86
2022/11/10 01:18:08;;;;;;;170.53;79.50;;;;;;;0.66;84.91;102047.48;1758201;81;21425;-87
2022/11/10 01:20:53;;;;;;;189.35;84.28;;;;;;;0.68;84.84;102047.05;1758288;81;21422;-87
2022/11/10 01:23:39;;;;;;;192.72;83.27;;;;;;;0.70;84.78;102045.78;1758313;81;22012;-87
2022/11/10 01:26:24;;;;;;;175.65;79.27;;;;;;;0.70;84.77;102048.36;1758506;81;20908;-86
2022/11/10 01:29:10;;;;;;;202.72;85.25;;;;;;;0.70;84.79;102049.22;1758453;81;20848;-85
2022/11/10 01:31:56;;;;;;;176.30;83.07;;;;;;;0.71;84.79;102049.67;1758034;80;20975;-86
2022/11/10 01:34:41;;;;;;;177.30;83.37;;;;;;;0.70;84.75;102045.34;1758402;80;20908;-87
2022/11/10 01:37:26;;;;;;;186.67;87.97;;;;;;;0.69;84.71;102044.92;1758612;81;21953;-88
2022/11/10 01:40:12;;;;;;;198.15;88.60;;;;;;;0.67;84.71;102039.30;1758312;81;21365;-86
2022/11/10 01:42:58;;;;;;;209.35;89.20;;;;;;;0.65;84.81;102041.89;1760729;81;20920;-85
2022/11/10 01:46:00;;;;;;;195.07;90.00;;;;;;;0.65;84.89;102039.31;1750177;81;20901;-88
2022/11/10 01:48:58;;;;;;;197.57;86.17;;;;;;;0.66;84.95;102047.48;1745056;81;20945;-87
2022/11/10 01:52:07;;;;;;;187.20;83.27;;;;;;;0.67;85.00;102045.34;1745030;80;21171;-88
2022/11/10 01:54:52;;;;;;;176.57;82.65;;;;;;;0.66;85.03;102038.88;1744898;81;20838;-86
2022/11/10 01:57:38;;;;;;;190.05;79.50;;;;;;;0.67;85.15;102044.05;1744881;81;20897;-86
2022/11/10 02:00:23;;;;;;;;;;;;;;;0.69;85.26;102047.51;1747455;81;21430;-86
2022/11/10 02:03:34;;;;;;;165.35;74.45;;;;;;;0.71;85.30;102050.95;1745154;81;20081;-86
2022/11/10 02:06:22;;;;;;;145.62;72.55;;;;;;;0.72;85.30;102047.94;1744821;81;21225;-87
2022/11/10 02:09:06;;;;;;;166.35;78.78;;;;;;;0.71;85.24;102055.23;1744876;82;20921;-86
2022/11/10 02:11:52;;;;;;;160.37;76.65;;;;;;;0.70;85.29;102049.22;1744871;81;21370;-86
2022/11/10 02:14:38;;;;;;;186.73;101.80;;;;;;;0.73;85.40;102058.25;1744829;81;20921;-84
2022/11/10 02:17:24;;;;;;;224.95;118.60;;;;;;;0.73;85.27;102062.56;1744883;82;20972;-86
2022/11/10 02:20:13;;;;;;;195.50;108.72;;;;;;;0.74;85.48;102057.41;1744771;81;21110;-86
2022/11/10 02:22:57;;;;;;;178.53;83.50;;;;;;;0.78;85.63;102060.88;1744838;81;20929;-86
2022/11/10 02:25:44;;;;;;;165.73;77.60;;;;;;;0.80;85.62;102066.48;1744710;82;20968;-85
2022/11/10 02:28:35;;;;;;;168.93;74.82;;;;;;;0.83;85.66;102065.62;1744789;82;21011;-86
2022/11/10 02:31:20;;;;;;;160.72;73.35;;;;;;;0.84;85.55;102072.50;1744680;81;20932;-86
2022/11/10 02:34:05;;;;;;;164.35;73.65;;;;;;;0.82;85.43;102067.75;1744631;81;21166;-85
2022/11/10 02:36:50;;;;;;;168.93;77.67;;;;;;;0.77;85.37;102062.58;1744860;81;20920;-85
2022/11/10 02:39:37;;;;;;;170.87;77.22;;;;;;;0.73;85.33;102064.70;1746489;81;20944;-86
2022/11/10 02:42:22;;;;;;;152.43;75.32;;;;;;;0.70;85.30;102062.12;1747380;78;20930;-85
2022/11/10 02:45:07;;;;;;;;;;;;;;;0.65;85.27;102056.09;1749660;78;20948;-85
2022/11/10 02:47:53;;;;;;;147.68;73.00;;;;;;;0.60;85.28;102053.89;1746327;78;21140;-86
2022/11/10 02:50:38;;;;;;;138.62;71.22;;;;;;;0.55;85.32;102050.00;1744911;80;20882;-86
2022/11/10 02:53:23;;;;;;;;;;;;;;;0.53;85.41;102056.02;1747404;82;21324;-85
2022/11/10 02:56:08;;;;;;;140.55;68.80;;;;;;;0.54;85.44;102050.02;1745536;80;20105;-86
2022/11/10 02:58:53;;;;;;;125.50;68.22;;;;;;;0.56;85.68;102048.31;1746511;80;20936;-85
2022/11/10 03:01:38;;;;;;;147.15;71.95;;;;;;;0.57;85.60;102048.30;1746283;81;21165;-85
2022/11/10 03:04:23;;;;;;;;;;;;;;;0.55;85.52;102043.98;1747703;82;20925;-86
2022/11/10 03:07:08;;;;;;;148.20;73.53;;;;;;;0.57;85.91;102045.72;1745227;81;20097;-86
2022/11/10 03:09:53;;;;;;;136.52;67.80;;;;;;;0.59;86.00;102050.45;1744696;81;20891;-86
2022/11/10 03:12:37;;;;;;;143.95;66.65;;;;;;;0.60;86.05;102052.20;1744745;80;20952;-85
2022/11/10 03:15:23;;;;;;;131.50;62.05;;;;;;;0.64;86.01;102060.80;1744709;81;21253;-87
2022/11/10 03:18:09;;;;;;;136.80;60.80;;;;;;;0.63;85.93;102057.80;1744684;81;20861;-86
2022/11/10 03:20:54;;;;;;;138.72;59.13;;;;;;;0.63;85.82;102058.23;1744908;81;20961;-86
2022/11/10 03:23:41;;;;;;;140.05;59.25;;;;;;;0.60;85.77;102063.81;1744567;81;20882;-87
2022/11/10 03:26:26;;;;;;;130.82;58.28;;;;;;;0.59;85.73;102060.78;1744857;81;20960;-86
2022/11/10 03:29:11;;;;;;;120.10;58.30;;;;;;;0.58;85.66;102061.66;1744520;81;21801;-86
2022/11/10 03:31:57;;;;;;;135.10;58.45;;;;;;;0.56;85.65;102067.23;1744892;81;20944;-88
2022/11/10 03:34:43;;;;;;;135.22;59.48;;;;;;;0.56;85.64;102069.81;1744746;81;20933;-87
2022/11/10 03:37:27;;;;;;;142.37;54.73;;;;;;;0.55;85.67;102071.09;1744875;81;21410;-88
2022/11/10 03:40:12;;;;;;;125.78;58.02;;;;;;;0.54;85.69;102072.81;1744744;80;20897;-87
2022/11/10 03:42:59;;;;;;;144.50;59.80;;;;;;;0.55;85.74;102070.66;1744607;81;21047;-88
2022/11/10 03:45:44;;;;;;;125.22;61.65;;;;;;;0.56;85.68;102070.25;1749554;80;20979;-88
2022/11/10 03:48:30;;;;;;;146.20;63.17;;;;;;;0.56;85.67;102074.13;1758056;80;20929;-87
2022/11/10 03:51:14;;;;;;;127.35;60.63;;;;;;;0.56;85.67;102077.56;1758130;81;21484;-87
2022/11/10 03:54:01;;;;;;;120.82;61.75;;;;;;;0.58;85.77;102082.73;1758687;81;20928;-87
2022/11/10 03:56:46;;;;;;;125.10;61.30;;;;;;;0.60;85.78;102082.29;1758356;81;22500;-88
2022/11/10 03:59:31;;;;;;;131.50;62.98;;;;;;;0.64;85.81;102083.18;1758186;80;20924;-88
2022/11/10 04:02:15;;;;;;;;;;;;;;;0.65;85.72;102080.61;1760770;81;20963;-88
2022/11/10 04:17:26;;;;;;;117.22;59.00;;;;;;;0.82;85.97;102084.54;1758499;81;20931;-87
2022/11/10 04:20:11;;;;;;;105.95;57.30;;;;;;;0.83;85.84;102083.70;1758425;81;21469;-88
2022/11/10 04:29:10;;;;;;;131.22;58.48;;;;;;;0.80;85.75;102094.00;1757972;81;20935;-87
2022/11/10 04:31:55;;;;;;;126.27;61.65;;;;;;;0.83;86.13;102090.16;1758012;81;21417;-85
2022/11/10 04:34:41;;;;;;;111.00;56.45;;;;;;;0.88;86.37;102092.31;1758349;80;20991;-89
2022/11/10 04:37:25;;;;;;;155.85;53.20;;;;;;;0.92;86.17;102097.08;1758378;81;20995;-87
2022/11/10 04:40:11;;;;;;;93.62;51.83;;;;;;;0.91;86.10;102100.50;1758168;80;21922;-87
2022/11/10 04:42:57;;;;;;;106.05;56.73;;;;;;;0.93;86.36;102101.37;1757927;80;21406;-87
2022/11/10 04:45:43;;;;;;;122.67;57.40;;;;;;;0.98;86.48;102100.98;1757934;81;20872;-87
2022/11/10 04:48:29;;;;;;;133.22;57.27;;;;;;;1.03;86.61;102096.69;1758065;81;20896;-87
2022/11/10 04:51:14;;;;;;;;;;;;;;;1.10;86.74;102104.88;1761255;81;20912;-86
2022/11/10 04:53:59;;;;;;;117.85;52.00;;;;;;;1.16;86.74;102101.47;1760922;81;21115;-84
2022/11/10 04:56:44;;;;;;;155.67;51.90;;;;;;;1.19;86.62;102101.47;1760242;80;21003;-86
2022/11/10 04:59:30;;;;;;;144.02;54.18;;;;;;;1.21;86.49;102101.90;1758679;81;20932;-88
2022/11/10 05:02:16;;;;;;;140.73;57.03;;;;;;;1.26;86.42;102102.34;1758736;81;21564;-87
2022/11/10 05:05:02;;;;;;;137.20;56.55;;;;;;;1.27;86.21;102111.81;1758101;81;21374;-88
2022/11/10 05:07:47;;;;;;;171.90;57.48;;;;;;;1.27;86.04;102109.23;1758339;80;21166;-88
2022/11/10 05:10:34;;;;;;;171.98;71.60;;;;;;;1.25;85.87;102114.41;1758079;81;21371;-88
2022/11/10 05:13:19;;;;;;;222.67;96.32;;;;;;;1.24;85.84;102117.44;1758440;81;21410;-87
2022/11/10 05:16:05;;;;;;;203.05;90.65;;;;;;;1.24;85.80;102117.44;1758195;80;20975;-87
2022/11/10 05:18:53;;;;;;;183.40;77.32;;;;;;;1.24;85.71;102125.59;1758165;81;21409;-88
2022/11/10 05:21:37;;;;;;;195.38;88.37;;;;;;;1.21;85.68;102121.28;1758150;80;21784;-88
2022/11/10 05:24:22;;;;;;;185.45;85.67;;;;;;;1.23;85.76;102118.70;1758132;80;20888;-87
2022/11/10 05:27:07;;;;;;;171.47;74.20;;;;;;;1.24;85.79;102118.72;1758454;81;21429;-86
2022/11/10 05:29:53;;;;;;;170.70;70.65;;;;;;;1.28;85.80;102126.03;1758744;81;20943;-88
2022/11/10 05:32:38;;;;;;;165.30;69.67;;;;;;;1.30;85.82;102128.20;1758501;81;21448;-89
2022/11/10 05:35:24;;;;;;;159.50;74.27;;;;;;;1.32;85.75;102127.77;1758633;80;21160;-88
2022/11/10 05:38:08;;;;;;;178.27;78.47;;;;;;;1.35;85.75;102135.52;1758279;81;20928;-89
2022/11/10 05:40:54;;;;;;;190.03;88.17;;;;;;;1.39;85.88;102137.70;1758763;81;21548;-89
2022/11/10 05:43:40;;;;;;;175.57;88.80;;;;;;;1.43;85.89;102135.13;1758155;80;20892;-88
2022/11/10 05:46:25;;;;;;;182.57;83.92;;;;;;;1.49;85.96;102140.75;1759825;78;20963;-90
2022/11/10 05:49:10;;;;;;;163.18;77.17;;;;;;;1.54;86.00;102141.61;1761039;78;21121;-88
2022/11/10 05:51:55;;;;;;;152.38;66.25;;;;;;;1.58;85.92;102147.23;1760923;78;20960;-87
2022/11/10 05:54:40;;;;;;;148.97;62.80;;;;;;;1.63;85.95;102153.70;1761574;78;20983;-86
2022/11/10 05:57:26;;;;;;;126.87;57.78;;;;;;;1.66;85.91;102155.84;1759062;80;20963;-89
2022/11/10 06:00:12;;;;;;;142.05;62.13;;;;;;;1.70;85.89;102152.84;1759242;80;20888;-88
2022/11/10 06:03:05;;;;;;;128.02;60.25;;;;;;;1.75;85.84;102156.72;1758978;81;21248;-89
2022/11/10 06:05:50;;;;;;;139.30;61.08;;;;;;;1.79;85.83;102156.73;1744854;81;21347;-89
2022/11/10 06:08:35;;;;;;;142.57;58.98;;;;;;;1.86;85.85;102162.77;1760255;81;21619;-90
2022/11/10 06:11:20;;;;;;;;;;;;;;;1.93;85.96;102155.44;1763402;81;20888;-88
2022/11/10 06:14:07;;;;;;;130.47;56.48;;;;;;;2.00;85.90;102155.90;1760096;80;20072;-88
2022/11/10 06:16:52;;;;;;;129.30;57.70;;;;;;;2.05;85.82;102155.45;1758016;81;21886;-88
2022/11/10 06:19:37;;;;;;;121.70;58.63;;;;;;;2.09;85.79;102156.33;1758196;81;20956;-87
2022/11/10 06:22:22;;;;;;;133.07;58.68;;;;;;;2.15;85.78;102157.60;1759472;81;20876;-87
2022/11/10 06:25:08;;;;;;;;;;;;;;;2.20;85.67;102161.48;1760865;80;20897;-89
2022/11/10 06:27:53;;;;;;;;;;;;;;;2.25;85.64;102161.92;1761020;81;20397;-89
2022/11/10 06:30:43;;;;;;;121.72;54.75;;;;;;;2.30;85.60;102160.62;1758331;81;21155;-90
2022/11/10 06:33:28;;;;;;;140.60;58.23;;;;;;;2.33;85.57;102161.91;1757911;81;21462;-90
2022/11/10 06:36:14;;;;;;;118.37;59.25;;;;;;;2.39;85.55;102159.76;1758085;81;21268;-87
2022/11/10 06:38:59;;;;;;;105.85;56.20;;;;;;;2.45;85.58;102159.76;1757968;80;20865;-88
2022/11/10 06:41:44;;;;;;;133.57;54.48;;;;;;;2.52;85.62;102164.05;1758448;81;20991;-90
2022/11/10 06:44:29;;;;;;;;;;;;;;;2.62;85.68;102161.00;1761024;81;21224;-90
2022/11/10 06:47:15;;;;;;;126.18;59.48;;;;;;;2.70;85.55;102167.03;1750950;81;20160;-90
2022/11/10 06:50:00;;;;;;;113.95;59.08;;;;;;;2.74;85.42;102163.58;1745210;82;20893;-92
2022/11/10 06:52:57;;;;;;;110.15;58.92;;;;;;;2.83;85.56;102163.98;1745496;81;21359;-91
2022/11/10 06:55:42;;;;;;;115.55;60.38;;;;;;;2.94;85.72;102163.95;1745097;82;20916;-90
2022/11/10 06:58:28;;;;;;;124.18;59.58;;;;;;;3.07;85.74;102165.20;1744963;81;21861;-89
2022/11/10 07:01:13;;;;;;;128.35;61.53;;;;;;;3.19;85.59;102177.23;1745348;81;20893;-90
2022/11/10 07:03:58;;;;;;;97.02;57.58;;;;;;;3.31;85.36;102168.13;1745874;81;20971;-89
2022/11/10 07:06:46;;;;;;;104.80;57.88;;;;;;;3.42;85.26;102174.97;1745487;81;20894;-88
2022/11/10 07:09:31;;;;;;;103.15;57.83;;;;;;;3.50;85.22;102174.05;1745447;81;20984;-90
2022/11/10 07:12:18;;;;;;;85.65;49.23;;;;;;;3.63;85.04;102170.97;1745031;81;21878;-89
2022/11/10 07:15:04;;;;;;;88.07;50.52;;;;;;;3.71;84.85;102170.48;1745828;81;20869;-87
2022/11/10 07:17:51;;;;;;;71.35;45.10;;;;;;;3.76;84.60;102170.87;1746423;81;20877;-88
2022/11/10 07:20:37;;;;;;;84.92;49.90;;;;;;;3.77;84.42;102169.57;1746319;81;20917;-86
2022/11/10 07:23:22;;;;;;;77.58;48.63;;;;;;;3.83;84.54;102173.42;1745788;81;20924;-88
2022/11/10 07:26:07;;;;;;;75.85;46.42;;;;;;;3.92;84.54;102160.83;1745668;81;21252;-88
2022/11/10 07:28:52;;;;;;;81.67;50.60;;;;;;;3.98;84.45;102162.50;1745813;80;21350;-88
2022/11/10 07:31:38;;;;;;;72.37;44.73;;;;;;;4.02;84.27;102161.60;1745880;81;20925;-88
2022/11/10 07:34:23;;;;;;;77.70;46.65;;;;;;;4.07;84.16;102162.42;1746773;81;20889;-88
2022/11/10 07:37:08;;;;;;;76.05;45.40;;;;;;;4.08;84.05;102166.31;1746137;82;20948;-85
2022/11/10 07:39:53;;;;;;;77.22;48.25;;;;;;;4.08;84.03;102165.02;1746380;81;21299;-88
2022/11/10 07:42:39;;;;;;;84.25;47.78;;;;;;;4.09;84.21;102166.75;1746299;81;20925;-87
2022/11/10 07:45:25;;;;;;;84.52;49.08;;;;;;;4.18;84.46;102163.63;1746856;81;21035;-87
2022/11/10 07:48:10;;;;;;;76.77;47.43;;;;;;;4.29;84.58;102161.39;1756447;80;20928;-88
2022/11/10 07:50:55;;;;;;;78.47;47.75;;;;;;;4.35;84.17;102173.00;1759186;80;20960;-89
2022/11/10 07:53:42;;;;;;;73.20;45.52;;;;;;;4.41;84.16;102166.90;1759221;81;21108;-87
2022/11/10 07:56:27;;;;;;;80.70;47.25;;;;;;;4.48;83.71;102171.16;1759808;81;20920;-87
2022/11/10 07:59:12;;;;;;;;;;;;;;;4.48;83.54;102171.59;1749078;81;20884;-85
2022/11/10 08:01:58;;;;;;;80.07;44.90;;;;;;;4.46;83.29;102183.30;1760244;80;20120;-88
2022/11/10 08:04:42;;;;;;;78.97;43.20;;;;;;;4.42;83.16;102188.09;1745350;81;21303;-89
2022/11/10 08:07:28;;;;;;;77.67;47.40;;;;;;;4.40;83.11;102186.38;1760494;81;21168;-88
2022/11/10 08:10:12;;;;;;;;;;;;;;;4.43;83.37;102187.23;1762690;81;20900;-87
2022/11/10 08:13:02;;;;;;;72.82;45.10;;;;;;;4.50;83.73;102191.48;1759161;81;20143;-88
2022/11/10 08:15:46;;;;;;;82.08;47.27;;;;;;;4.58;83.69;102188.83;1759258;81;20979;-90
2022/11/10 08:18:32;;;;;;;84.60;49.13;;;;;;;4.68;83.75;102184.39;1758940;81;21354;-89
2022/11/10 08:21:19;;;;;;;73.65;45.45;;;;;;;4.80;83.74;102184.69;1759853;81;21273;-89
2022/11/10 08:24:08;;;;;;;80.60;45.88;;;;;;;4.94;83.62;102187.57;1760645;81;20935;-90
2022/11/10 08:26:53;;;;;;;76.75;48.95;;;;;;;5.05;83.23;102193.95;1759671;81;20852;-87
2022/11/10 08:29:38;;;;;;;85.20;49.25;;;;;;;5.15;83.03;102190.34;1759140;81;20935;-87
2022/11/10 08:32:23;;;;;;;90.85;51.45;;;;;;;5.26;82.79;102191.97;1759199;80;20896;-88
2022/11/10 08:35:08;;;;;;;77.15;48.50;;;;;;;5.40;82.84;102188.73;1759665;80;21518;-88
2022/11/10 08:37:55;;;;;;;80.80;48.33;;;;;;;5.58;82.37;102191.11;1759773;81;20912;-89
2022/11/10 08:40:40;;;;;;;81.97;48.78;;;;;;;5.74;82.18;102193.05;1759830;81;20916;-89
2022/11/10 08:43:27;;;;;;;81.17;48.78;;;;;;;5.88;81.65;102201.09;1759658;81;21003;-88
2022/11/10 08:46:12;;;;;;;91.95;51.60;;;;;;;5.98;81.41;102198.78;1760017;80;20844;-89
2022/11/10 08:48:58;;;;;;;89.80;50.85;;;;;;;6.12;81.52;102194.24;1721570;82;21353;-88
2022/11/10 08:51:44;;;;;;;77.92;50.92;;;;;;;6.36;81.23;102192.13;1721488;82;20876;-88
2022/11/10 08:54:35;;;;;;;91.08;53.17;;;;;;;6.54;80.98;102190.95;1723076;80;20856;-87
2022/11/10 08:57:20;;;;;;;85.12;52.00;;;;;;;6.72;80.16;102188.45;1680559;80;20878;-87
2022/11/10 09:00:09;;;;;;;85.65;52.17;;;;;;;6.90;79.63;102184.17;1647445;81;21001;-89
2022/11/10 09:03:00;;;;;;;91.75;53.80;;;;;;;7.01;78.97;102189.19;1665038;84;21197;-88
2022/11/10 09:05:48;;;;;;;82.72;51.58;;;;;;;7.08;78.50;102180.80;1664161;86;20973;-89
2022/11/10 09:08:39;;;;;;;81.65;49.93;;;;;;;7.18;78.01;102188.41;1664242;84;21013;-87
2022/11/10 09:11:25;;;;;;;82.65;49.95;;;;;;;7.28;77.88;102182.98;1664078;84;21055;-89
2022/11/10 09:14:14;;;;;;;91.08;51.48;;;;;;;7.37;77.48;102180.18;1664050;84;21049;-89
2022/11/10 09:16:59;;;;;;;84.70;50.63;;;;;;;7.44;77.10;102172.63;1664197;85;21134;-89
2022/11/10 09:19:44;;;;;;;88.90;53.48;;;;;;;7.46;76.94;102175.61;1664500;84;21078;-86
2022/11/10 09:22:31;;;;;;;82.02;48.33;;;;;;;7.56;76.96;102178.02;1664331;84;20962;-87
2022/11/10 09:25:19;;;;;;;81.00;47.50;;;;;;;7.67;76.11;102178.66;1663814;84;21078;-88
2022/11/10 09:28:04;;;;;;;79.70;45.95;;;;;;;7.67;76.02;102170.38;1644436;84;20985;-90
2022/11/10 09:30:51;;;;;;;81.67;48.65;;;;;;;7.66;76.15;102169.94;1663392;84;20985;-87
2022/11/10 09:33:36;;;;;;;86.05;51.00;;;;;;;7.75;75.87;102174.55;1663072;84;21498;-88
2022/11/10 09:36:22;;;;;;;80.67;48.05;;;;;;;7.80;75.78;102168.34;1663398;84;21000;-89
2022/11/10 09:39:10;;;;;;;82.62;51.25;;;;;;;7.96;75.62;102170.56;1663340;85;20946;-90
2022/11/10 09:41:55;;;;;;;79.27;49.13;;;;;;;8.10;75.29;102171.10;1663368;86;21021;-89
2022/11/10 09:44:45;;;;;;;;;;;;;;;8.17;73.91;102173.11;1647704;86;21129;-90
2022/11/10 09:47:41;;;;;;;80.67;51.40;;;;;;;8.18;73.91;102176.13;1663174;84;20379;-89
2022/11/10 09:50:51;;;;;;;81.97;50.80;;;;;;;8.19;74.13;102172.63;1663261;84;20932;-87
2022/11/10 09:53:58;;;;;;;91.00;51.02;;;;;;;8.27;73.74;102168.93;1664117;85;20934;-87
2022/11/10 09:56:45;;;;;;;79.67;50.43;;;;;;;8.23;73.28;102163.36;1615513;84;21494;-88
2022/11/10 09:59:33;;;;;;;86.60;53.63;;;;;;;8.33;73.03;102160.05;1670926;84;21319;-87
2022/11/10 10:02:30;;;;;;;89.30;53.15;;;;;;;8.36;72.55;102161.73;1671176;84;21084;-90
2022/11/10 10:05:38;;;;;;;86.32;51.75;;;;;;;8.44;72.42;102165.89;1671396;84;20945;-89
2022/11/10 10:08:44;;;;;;;78.90;50.88;;;;;;;8.61;72.09;102164.16;1671332;84;21016;-87
2022/11/10 10:11:53;;;;;;;86.35;52.23;;;;;;;8.76;71.74;102161.58;1671385;86;20893;-89
2022/11/10 10:14:49;;;;;;;95.25;55.12;;;;;;;8.97;71.16;102157.48;1642136;86;22391;-87
2022/11/10 10:17:49;;;;;;;84.10;53.90;;;;;;;9.16;70.74;102153.91;1672361;84;21289;-86
2022/11/10 10:21:09;;;;;;;88.65;55.33;;;;;;;9.50;70.60;102148.49;1671261;84;20968;-89
2022/11/10 10:23:58;;;;;;;81.53;52.48;;;;;;;9.87;68.97;102153.89;1671486;84;21000;-89
2022/11/10 10:26:53;;;;;;;88.67;53.83;;;;;;;10.15;68.07;102154.28;1670550;84;20949;-90
2022/11/10 10:29:48;;;;;;;88.15;54.15;;;;;;;10.59;66.92;102149.30;1645993;84;22030;-89
2022/11/10 10:32:34;;;;;;;86.92;55.05;;;;;;;10.59;66.92;102149.30;1647282;86;20917;-88
2022/11/10 10:35:23;;;;;;;84.30;56.80;;;;;;;10.77;66.14;102143.85;1670707;85;20933;-89
2022/11/10 10:38:32;;;;;;;87.20;56.02;;;;;;;10.82;65.02;102142.37;1670061;86;21422;-90
2022/11/10 10:41:29;;;;;;;89.40;56.98;;;;;;;10.96;65.01;102142.70;1670197;84;20925;-88
2022/11/10 10:44:17;;;;;;;82.17;55.38;;;;;;;11.03;64.14;102140.70;1646133;84;21281;-89
2022/11/10 10:47:03;;;;;;;78.97;53.13;;;;;;;10.92;63.77;102134.57;1670517;84;20869;-88
2022/11/10 10:49:48;;;;;;;84.03;54.50;;;;;;;10.73;63.68;102140.94;1670580;84;20933;-88
2022/11/10 10:52:34;;;;;;;88.17;56.90;;;;;;;10.47;64.29;102144.48;1669973;84;20980;-89
2022/11/10 10:55:21;;;;;;;82.25;56.05;;;;;;;10.38;65.14;102143.03;1671545;86;21018;-88
2022/11/10 10:58:33;;;;;;;87.15;60.20;;;;;;;10.46;65.52;102139.70;1625366;85;20942;-89
2022/11/10 11:02:27;;;;;;;84.25;54.67;;;;;;;10.50;65.27;102132.59;1886896;75;22368;-87
2022/11/10 11:05:18;;;;;;;84.90;55.15;;;;;;;10.45;65.44;102135.80;1863001;77;20836;-88
2022/11/10 11:08:03;;;;;;;81.75;53.85;;;;;;;10.43;65.33;102134.56;1862870;76;21206;-89
2022/11/10 11:10:48;;;;;;;79.17;52.78;;;;;;;10.45;65.25;102130.56;1862787;77;20943;-89
2022/11/10 11:13:33;;;;;;;82.50;51.80;;;;;;;10.42;65.37;102139.39;1863021;77;20859;-89
2022/11/10 11:16:21;;;;;;;75.78;49.35;;;;;;;10.41;65.17;102132.91;1862148;77;20891;-88
2022/11/10 11:19:08;;;;;;;84.77;55.80;;;;;;;10.35;65.18;102136.59;1861850;77;20923;-89
2022/11/10 11:22:10;;;;;;;99.85;60.98;;;;;;;10.20;64.98;102130.06;1862858;76;21261;-87
2022/11/10 11:25:36;;;;;;;76.57;49.03;;;;;;;10.02;65.08;102132.01;1862733;76;21396;-87
2022/11/10 11:28:51;;;;;;;73.42;49.15;;;;;;;9.86;65.62;102134.28;1856638;76;21384;-88
2022/11/10 11:31:54;;;;;;;75.97;47.90;;;;;;;9.74;66.00;102138.16;1831985;77;20922;-88
2022/11/10 11:35:02;;;;;;;66.20;45.60;;;;;;;9.62;66.53;102136.77;1860717;77;20859;-88
2022/11/10 11:38:11;;;;;;;63.60;43.45;;;;;;;9.60;66.93;102137.73;1860861;77;21271;-88
2022/11/10 11:41:20;;;;;;;67.60;42.03;;;;;;;9.64;67.23;102130.18;1860956;77;21341;-89
2022/11/10 11:44:25;;;;;;;59.95;40.75;;;;;;;9.77;67.18;102128.03;1860896;77;20867;-89
2022/11/10 11:47:22;;;;;;;62.93;41.25;;;;;;;9.91;66.99;102130.59;1860910;77;21341;-89
2022/11/10 11:50:24;;;;;;;58.52;39.60;;;;;;;10.03;66.53;102127.19;1860865;76;21458;-90
2022/11/10 11:53:24;;;;;;;63.70;38.13;;;;;;;10.14;66.27;102134.23;1860781;77;21265;-88
2022/11/10 11:56:29;;;;;;;55.48;35.90;;;;;;;10.22;66.01;102138.73;1860694;76;21356;-88
2022/11/10 11:59:29;;;;;;;35.98;27.42;;;;;;;10.18;65.29;102135.81;1861000;77;21418;-88
2022/11/10 12:02:52;;;;;;;38.38;26.17;;;;;;;10.06;64.58;102131.85;1839007;75;21368;-88
2022/11/10 12:06:04;;;;;;;26.62;19.05;;;;;;;9.93;64.56;102129.23;1835488;76;21360;-90
2022/11/10 12:09:06;;;;;;;27.52;17.82;;;;;;;9.81;64.54;102120.02;1835597;77;21242;-88
2022/11/10 12:12:23;;;;;;;25.45;17.85;;;;;;;9.69;64.16;102131.77;1835310;76;20883;-88
2022/11/10 12:15:31;;;;;;;27.05;19.95;;;;;;;9.58;64.31;102127.75;1811083;77;20914;-87
2022/11/10 12:18:31;;;;;;;26.65;17.67;;;;;;;9.49;64.50;102126.27;1834754;76;20878;-87
2022/11/10 12:21:24;;;;;;;24.82;16.73;;;;;;;9.48;64.74;102129.81;1834758;77;21332;-87
2022/11/10 12:24:53;;;;;;;22.00;17.90;;;;;;;9.53;64.86;102122.66;1835162;77;21160;-88
2022/11/10 12:27:45;;;;;;;19.73;15.65;;;;;;;9.63;64.98;102129.79;1834908;77;20883;-88
2022/11/10 12:30:30;;;;;;;26.45;16.32;;;;;;;9.68;64.70;102126.56;1835825;77;20879;-89
2022/11/10 12:33:36;;;;;;;17.45;14.07;;;;;;;9.74;64.53;102119.83;1813132;77;21522;-87
2022/11/10 12:36:21;;;;;;;19.15;16.12;;;;;;;9.78;64.34;102125.34;1836742;78;20929;-89
2022/11/10 12:39:22;;;;;;;19.15;13.88;;;;;;;9.78;63.74;102124.03;1835711;77;21243;-87
2022/11/10 12:42:13;;;;;;;20.40;16.02;;;;;;;9.71;63.32;102119.44;1835814;78;20984;-88
2022/11/10 12:45:07;;;;;;;22.20;16.23;;;;;;;9.63;63.45;102112.77;1812423;77;20946;-86
2022/11/10 12:47:55;;;;;;;17.32;13.38;;;;;;;9.60;63.80;102120.24;1826124;77;20847;-87
2022/11/10 12:51:08;;;;;;;19.30;14.83;;;;;;;9.63;63.99;102115.39;1835736;77;20903;-88
2022/11/10 12:53:55;;;;;;;26.42;17.98;;;;;;;9.63;63.82;102114.08;1835491;77;21755;-85
2022/11/10 12:56:51;;;;;;;19.92;14.07;;;;;;;9.51;63.79;102120.08;1835158;77;20985;-87
2022/11/10 12:59:38;;;;;;;19.52;14.87;;;;;;;9.44;63.93;102122.48;1835510;77;20859;-87
2022/11/10 13:02:41;;;;;;;20.35;16.30;;;;;;;9.40;64.16;102128.72;1835317;77;20926;-87
2022/11/10 13:05:31;;;;;;;19.32;17.05;;;;;;;9.37;64.25;102128.83;1835438;77;20878;-87
2022/11/10 13:08:37;;;;;;;25.65;17.95;;;;;;;9.32;64.53;102124.20;1835897;77;21594;-87
2022/11/10 13:11:35;;;;;;;25.57;20.50;;;;;;;9.28;64.62;102123.88;1835590;77;20930;-89
2022/11/10 13:14:28;;;;;;;32.80;23.98;;;;;;;9.19;64.77;102122.39;1836037;77;21070;-89
2022/11/10 13:17:31;;;;;;;31.68;21.95;;;;;;;9.13;65.02;102122.11;1837307;78;21396;-89
2022/11/10 13:20:47;;;;;;;30.68;23.00;;;;;;;9.08;65.22;102117.93;1813709;77;20895;-89